Time;durP1;ratioP1;P1;durP2;ratioP2;P2;SDS_P1;SDS_P2;PMS_P1;PMS_P2;Temp;Humidity;BMP_temperature;BMP_pressure;BME280_temperature;BME280_humidity;BME280_pressure;Samples;Min_cycle;Max_cycle;Signal;HPM_P1;HPM_P2
2022/12/04 00:02:22;;;;;;;56.83;32.95;;;0.50;99.90;;;;;;5076390;28;20055;-72
2022/12/04 00:04:48;;;;;;;56.65;32.80;;;0.50;99.90;;;;;;5075679;28;20043;-72
2022/12/04 00:07:14;;;;;;;54.42;31.73;;;0.40;99.90;;;;;;5069476;28;20055;-72
2022/12/04 00:09:39;;;;;;;55.95;33.05;;;0.50;99.90;;;;;;5075426;28;20101;-72
2022/12/04 00:12:05;;;;;;;57.63;30.02;;;0.50;99.90;;;;;;5084641;28;20101;-72
2022/12/04 00:14:31;;;;;;;57.90;32.30;;;0.50;99.90;;;;;;5090937;28;20098;-72
2022/12/04 00:16:57;;;;;;;56.13;31.05;;;0.50;99.90;;;;;;5069554;28;20491;-71
2022/12/04 00:19:23;;;;;;;55.00;31.83;;;0.50;99.90;;;;;;5095827;28;20051;-72
2022/12/04 00:21:49;;;;;;;63.45;35.10;;;0.60;99.90;;;;;;5068579;28;20059;-72
2022/12/04 00:24:15;;;;;;;57.80;32.17;;;0.60;99.90;;;;;;5090737;28;20050;-72
2022/12/04 00:26:41;;;;;;;60.13;33.63;;;0.50;99.90;;;;;;5095431;28;20051;-71
2022/12/04 00:29:07;;;;;;;57.80;33.67;;;0.50;99.90;;;;;;5095405;28;20058;-72
2022/12/04 00:31:33;;;;;;;54.60;31.42;;;0.50;99.90;;;;;;5094300;28;20039;-71
2022/12/04 00:33:59;;;;;;;54.50;30.05;;;0.50;99.90;;;;;;5095774;28;20044;-72
2022/12/04 00:36:26;;;;;;;56.58;30.70;;;1.40;99.90;;;;;;5091312;28;20083;-72
2022/12/04 00:38:52;;;;;;;58.13;32.58;;;0.50;99.90;;;;;;5081048;28;20094;-72
2022/12/04 00:41:22;;;;;;;57.40;32.50;;;0.50;99.90;;;;;;5077842;28;20044;-72
2022/12/04 00:43:47;;;;;;;58.40;34.08;;;0.50;99.90;;;;;;5102188;28;20055;-71
2022/12/04 00:46:14;;;;;;;55.47;30.90;;;0.50;99.90;;;;;;5102098;28;20097;-72
2022/12/04 00:48:41;;;;;;;52.17;28.45;;;0.50;99.90;;;;;;5096097;28;20056;-72
2022/12/04 00:51:16;;;;;;;59.83;32.90;;;0.50;99.90;;;;;;5081226;28;20048;-72
2022/12/04 00:53:42;;;;;;;55.85;31.77;;;0.50;99.90;;;;;;5100461;28;20479;-72
2022/12/04 00:56:11;;;;;;;59.53;33.80;;;0.60;99.90;;;;;;5087309;28;20100;-72
2022/12/04 00:58:37;;;;;;;58.17;34.78;;;0.50;99.90;;;;;;5088011;28;20051;-72
2022/12/04 01:01:09;;;;;;;59.85;34.83;;;0.40;99.90;;;;;;5095055;28;20047;-72
2022/12/04 01:03:35;;;;;;;55.78;32.42;;;0.50;99.90;;;;;;5081495;28;20448;-72
2022/12/04 01:06:02;;;;;;;46.60;24.48;;;0.70;99.90;;;;;;5066191;28;20421;-71
2022/12/04 01:08:28;;;;;;;63.33;35.55;;;0.50;99.90;;;;;;5102059;28;20047;-72
2022/12/04 01:10:53;;;;;;;56.40;32.63;;;0.50;99.90;;;;;;5087294;28;20062;-72
2022/12/04 01:13:19;;;;;;;60.72;34.60;;;0.50;99.90;;;;;;5093078;28;20127;-72
2022/12/04 01:15:46;;;;;;;60.55;34.22;;;0.50;99.90;;;;;;5076880;28;20078;-72
2022/12/04 01:18:13;;;;;;;58.97;33.60;;;0.50;99.90;;;;;;5094291;28;20048;-72
2022/12/04 01:20:39;;;;;;;60.53;35.30;;;0.40;99.90;;;;;;5080219;28;20045;-72
2022/12/04 01:23:05;;;;;;;58.38;32.85;;;0.90;99.90;;;;;;5100090;28;20039;-72
2022/12/04 01:25:31;;;;;;;60.30;32.95;;;1.40;99.90;;;;;;5090202;28;20084;-72
2022/12/04 01:27:57;;;;;;;60.92;33.08;;;0.50;99.90;;;;;;5084809;28;20122;-72
2022/12/04 01:30:23;;;;;;;58.42;33.60;;;0.90;99.90;;;;;;5080510;28;20126;-73
2022/12/04 01:32:48;;;;;;;59.35;34.38;;;0.50;99.90;;;;;;5093822;28;20092;-73
2022/12/04 01:35:14;;;;;;;56.40;32.28;;;0.40;99.90;;;;;;5086099;28;20395;-72
2022/12/04 01:37:40;;;;;;;58.70;33.70;;;0.70;99.90;;;;;;5089661;28;20040;-72
2022/12/04 01:40:11;;;;;;;58.83;33.70;;;0.50;99.90;;;;;;5081600;28;20472;-71
2022/12/04 01:42:38;;;;;;;;;;;0.50;99.90;;;;;;5102190;28;20457;-72
2022/12/04 01:45:43;;;;;;;57.65;32.95;;;0.50;99.90;;;;;;5098098;27;19920;-72
2022/12/04 01:48:30;;;;;;;59.78;34.80;;;0.50;99.90;;;;;;5094717;28;20048;-74
2022/12/04 01:51:05;;;;;;;55.75;31.48;;;0.40;99.90;;;;;;5066167;28;20426;-72
2022/12/04 01:53:33;;;;;;;57.83;33.08;;;0.40;99.90;;;;;;5080268;28;20048;-72
2022/12/04 01:56:01;;;;;;;57.22;32.75;;;0.50;99.90;;;;;;5084306;28;20054;-71
2022/12/04 01:58:31;;;;;;;59.25;33.20;;;0.40;99.90;;;;;;5074676;28;20046;-72
2022/12/04 02:01:01;;;;;;;62.97;35.67;;;0.60;99.90;;;;;;5078581;28;20070;-72
2022/12/04 02:03:27;;;;;;;60.13;33.85;;;0.50;99.90;;;;;;5089504;28;20047;-72
2022/12/04 02:05:53;;;;;;;58.70;34.05;;;0.40;99.90;;;;;;5079037;28;20042;-72
2022/12/04 02:08:18;;;;;;;59.20;34.08;;;0.50;99.90;;;;;;5077499;28;20040;-72
2022/12/04 02:11:09;;;;;;;63.13;35.95;;;1.00;99.90;;;;;;5076733;28;20050;-72
2022/12/04 02:13:54;;;;;;;58.67;34.17;;;0.50;99.90;;;;;;5097573;28;20039;-72
2022/12/04 02:16:53;;;;;;;62.40;34.83;;;0.50;99.90;;;;;;5097579;28;20055;-72
2022/12/04 02:19:57;;;;;;;57.92;31.98;;;0.40;99.90;;;;;;5064862;28;20044;-72
2022/12/04 02:22:49;;;;;;;55.92;32.47;;;0.50;99.90;;;;;;5091826;27;20043;-72
2022/12/04 02:25:30;;;;;;;60.53;34.00;;;0.50;99.90;;;;;;5076983;28;20077;-72
2022/12/04 02:28:08;;;;;;;59.97;34.72;;;0.50;99.90;;;;;;5077019;28;20365;-72
2022/12/04 02:30:39;;;;;;;54.08;28.42;;;0.40;99.90;;;;;;5060627;28;20151;-72
2022/12/04 02:33:28;;;;;;;59.83;35.17;;;0.50;99.90;;;;;;5074219;28;20028;-73
2022/12/04 02:36:01;;;;;;;62.55;34.85;;;0.50;99.90;;;;;;5076391;28;20040;-72
2022/12/04 02:38:37;;;;;;;62.63;35.05;;;0.40;99.90;;;;;;5076524;28;20044;-72
2022/12/04 02:41:12;;;;;;;60.40;34.60;;;0.40;99.90;;;;;;5060399;28;20048;-72
2022/12/04 02:43:46;;;;;;;59.88;35.72;;;0.40;99.90;;;;;;5096032;28;20135;-72
2022/12/04 02:46:38;;;;;;;58.90;34.60;;;0.50;99.90;;;;;;5095341;28;20134;-72
2022/12/04 02:49:10;;;;;;;66.78;35.80;;;0.40;99.90;;;;;;5086201;28;20075;-72
2022/12/04 02:51:38;;;;;;;;;;;0.40;99.90;;;;;;5081865;28;20077;-72
2022/12/04 02:54:13;;;;;;;59.20;32.45;;;0.50;99.90;;;;;;5092695;28;19926;-72
2022/12/04 02:56:42;;;;;;;59.70;34.55;;;0.40;99.90;;;;;;5071234;28;20047;-72
2022/12/04 02:59:19;;;;;;;57.63;33.53;;;0.40;99.90;;;;;;5076924;28;20044;-72
2022/12/04 03:01:50;;;;;;;66.45;36.95;;;0.40;99.90;;;;;;5087930;28;20059;-72
2022/12/04 03:04:23;;;;;;;65.25;37.13;;;0.40;99.90;;;;;;5096351;28;20047;-72
2022/12/04 03:06:54;;;;;;;63.53;36.35;;;0.50;99.90;;;;;;5078766;28;20044;-72
2022/12/04 03:09:26;;;;;;;61.08;35.58;;;0.40;99.90;;;;;;5092406;28;20054;-72
2022/12/04 03:11:57;;;;;;;66.07;37.95;;;0.40;99.90;;;;;;5083936;28;20048;-72
2022/12/04 03:14:27;;;;;;;64.45;34.42;;;0.40;99.90;;;;;;5090722;28;20048;-73
2022/12/04 03:16:59;;;;;;;61.53;34.75;;;0.50;99.90;;;;;;5076474;28;20082;-72
2022/12/04 03:19:33;;;;;;;50.20;29.08;;;0.40;99.90;;;;;;5093675;28;20096;-73
2022/12/04 03:22:03;;;;;;;62.83;35.50;;;0.40;99.90;;;;;;5077985;28;20043;-72
2022/12/04 03:24:36;;;;;;;64.90;36.72;;;0.40;99.90;;;;;;5079736;28;20043;-72
2022/12/04 03:27:22;;;;;;;60.22;33.33;;;0.40;99.90;;;;;;5095760;28;20101;-72
2022/12/04 03:30:00;;;;;;;63.70;35.92;;;0.40;99.90;;;;;;5096164;28;20146;-72
2022/12/04 03:33:20;;;;;;;64.03;35.92;;;0.50;99.90;;;;;;5083924;28;20040;-71
2022/12/04 03:35:53;;;;;;;64.18;34.33;;;0.40;99.90;;;;;;5033201;28;20063;-72
2022/12/04 03:38:28;;;;;;;65.63;37.38;;;0.50;99.90;;;;;;5087336;28;20518;-72
2022/12/04 03:41:00;;;;;;;69.03;38.65;;;0.40;99.90;;;;;;5096108;28;20051;-71
2022/12/04 03:44:07;;;;;;;65.18;36.15;;;0.30;99.90;;;;;;5096197;28;20044;-72
2022/12/04 03:46:51;;;;;;;63.22;33.35;;;0.40;99.90;;;;;;5089035;28;20094;-72
2022/12/04 03:49:29;;;;;;;68.97;40.00;;;0.30;99.90;;;;;;5078549;28;20048;-72
2022/12/04 03:52:08;;;;;;;63.35;36.20;;;0.30;99.90;;;;;;5074639;28;20364;-72
2022/12/04 03:54:41;;;;;;;67.40;38.05;;;0.30;99.90;;;;;;5075948;28;20138;-73
2022/12/04 03:57:13;;;;;;;62.78;37.05;;;0.30;99.90;;;;;;5059630;28;20067;-71
2022/12/04 03:59:51;;;;;;;66.60;38.58;;;0.30;99.90;;;;;;5080209;28;20550;-72
2022/12/04 04:02:20;;;;;;;67.80;39.10;;;0.90;99.90;;;;;;5084430;28;20052;-72
2022/12/04 04:04:51;;;;;;;67.38;37.35;;;0.30;99.90;;;;;;5095373;28;20566;-72
2022/12/04 04:07:25;;;;;;;52.95;30.33;;;0.40;99.90;;;;;;5094861;28;20119;-72
2022/12/04 04:09:57;;;;;;;67.32;38.33;;;0.30;99.90;;;;;;5090824;28;20127;-72
2022/12/04 04:12:27;;;;;;;68.13;39.53;;;0.50;99.90;;;;;;5074799;28;20044;-72
2022/12/04 04:26:30;;;;;;;68.05;37.90;;;0.30;99.90;;;;;;5086236;28;20051;-73
2022/12/04 04:28:55;;;;;;;64.03;36.30;;;0.30;99.90;;;;;;5095549;28;20039;-72
2022/12/04 04:31:36;;;;;;;68.05;37.17;;;0.30;99.90;;;;;;5079073;28;20051;-73
2022/12/04 04:34:15;;;;;;;69.03;36.88;;;0.30;99.90;;;;;;5092984;28;20403;-73
2022/12/04 04:36:54;;;;;;;69.20;39.45;;;0.20;99.90;;;;;;5083007;28;20063;-72
2022/12/04 04:39:43;;;;;;;68.15;36.92;;;0.20;99.90;;;;;;5072426;28;20052;-72
2022/12/04 04:42:30;;;;;;;67.57;37.63;;;0.20;99.90;;;;;;5075009;28;20127;-72
2022/12/04 04:44:59;;;;;;;71.75;38.95;;;0.20;99.90;;;;;;5074451;28;20066;-72
2022/12/04 04:47:32;;;;;;;66.60;37.38;;;0.60;99.90;;;;;;5073366;28;20134;-72
2022/12/04 04:50:00;;;;;;;66.75;37.25;;;0.80;99.90;;;;;;5046377;28;20049;-71
2022/12/04 04:52:27;;;;;;;70.25;38.47;;;0.10;99.90;;;;;;5054508;28;20082;-72
2022/12/04 04:54:54;;;;;;;66.75;37.63;;;0.60;99.90;;;;;;5045525;28;20052;-72
2022/12/04 04:57:31;;;;;;;70.00;38.67;;;0.40;99.90;;;;;;5054505;28;20056;-72
2022/12/04 04:59:57;;;;;;;67.28;36.97;;;0.10;99.90;;;;;;5060506;28;20044;-73
2022/12/04 05:02:26;;;;;;;71.40;38.47;;;0.20;99.90;;;;;;5093037;28;20050;-73
2022/12/04 05:04:53;;;;;;;67.15;38.22;;;0.20;99.90;;;;;;5054622;28;20127;-74
2022/12/04 05:07:18;;;;;;;68.85;37.58;;;0.10;99.90;;;;;;5045039;28;20036;-72
2022/12/04 05:09:44;;;;;;;68.57;38.42;;;0.50;99.90;;;;;;5088842;28;20052;-73
2022/12/04 05:12:10;;;;;;;64.07;36.80;;;0.10;99.90;;;;;;5054073;28;20045;-72
2022/12/04 05:14:35;;;;;;;68.00;37.83;;;1.00;99.90;;;;;;5048994;28;20054;-72
2022/12/04 05:17:03;;;;;;;69.82;37.83;;;0.10;99.90;;;;;;5054467;28;20040;-72
2022/12/04 05:22:16;;;;;;;68.68;37.97;;;0.10;99.90;;;;;;5066246;28;20055;-72
2022/12/04 05:24:42;;;;;;;70.65;39.55;;;0.10;99.90;;;;;;5057196;28;20504;-72
2022/12/04 05:27:08;;;;;;;66.97;36.85;;;0.10;99.90;;;;;;5071749;28;20037;-72
2022/12/04 05:29:34;;;;;;;62.95;35.00;;;0.10;99.90;;;;;;5042137;28;20449;-72
2022/12/04 05:31:59;;;;;;;63.70;35.50;;;0.30;99.90;;;;;;5058512;28;20057;-72
2022/12/04 05:34:25;;;;;;;69.28;37.00;;;0.10;99.90;;;;;;5068664;28;20044;-72
2022/12/04 05:36:51;;;;;;;67.50;36.78;;;0.10;99.90;;;;;;5072683;28;20047;-72
2022/12/04 05:39:17;;;;;;;68.88;38.42;;;0.20;99.90;;;;;;5058435;28;20147;-72
2022/12/04 05:41:43;;;;;;;65.30;35.08;;;0.10;99.90;;;;;;5041620;28;20059;-73
2022/12/04 05:44:08;;;;;;;65.32;36.33;;;0.10;99.90;;;;;;5057998;28;20048;-72
2022/12/04 05:46:34;;;;;;;65.43;36.05;;;0.20;99.90;;;;;;5052926;28;20064;-72
2022/12/04 05:49:00;;;;;;;62.17;35.60;;;0.20;99.90;;;;;;5061538;28;20036;-72
2022/12/04 05:51:26;;;;;;;56.60;32.50;;;0.20;99.90;;;;;;5077123;28;20502;-73
2022/12/04 05:53:51;;;;;;;68.05;36.80;;;0.20;99.90;;;;;;5059200;28;20468;-73
2022/12/04 05:56:17;;;;;;;65.20;38.65;;;0.50;99.90;;;;;;5057983;28;20076;-72
2022/12/04 05:58:43;;;;;;;65.95;37.78;;;0.20;99.90;;;;;;5055278;28;20101;-72
2022/12/04 06:01:11;;;;;;;63.90;37.50;;;0.10;99.90;;;;;;5058653;28;20044;-72
2022/12/04 06:03:37;;;;;;;61.75;31.40;;;0.20;99.90;;;;;;5078135;28;20548;-74
2022/12/04 06:06:03;;;;;;;68.22;36.78;;;0.20;99.90;;;;;;5051882;28;20040;-73
2022/12/04 06:08:30;;;;;;;67.50;36.88;;;0.20;99.90;;;;;;5057007;28;20040;-72
2022/12/04 06:10:56;;;;;;;66.00;37.20;;;0.20;99.90;;;;;;5053186;28;20052;-72
2022/12/04 06:13:21;;;;;;;66.88;36.88;;;0.20;99.90;;;;;;5076987;28;20051;-72
2022/12/04 06:15:47;;;;;;;62.42;34.85;;;0.20;99.90;;;;;;5057175;28;20059;-72
2022/12/04 06:18:13;;;;;;;66.93;38.05;;;1.00;99.90;;;;;;5040375;28;20138;-72
2022/12/04 06:20:39;;;;;;;64.85;37.28;;;0.20;99.90;;;;;;5022194;28;20083;-72
2022/12/04 06:23:05;;;;;;;72.53;41.45;;;0.20;99.90;;;;;;5051718;28;20055;-72
2022/12/04 06:25:30;;;;;;;62.38;33.35;;;0.20;99.90;;;;;;5040150;28;20127;-72
2022/12/04 06:27:56;;;;;;;72.13;38.60;;;0.20;99.90;;;;;;5083348;28;20049;-72
2022/12/04 06:30:22;;;;;;;72.82;40.25;;;0.10;99.90;;;;;;5074992;28;20462;-72
2022/12/04 06:32:48;;;;;;;73.43;38.03;;;0.10;99.90;;;;;;5060072;28;20051;-72
2022/12/04 06:35:14;;;;;;;67.47;34.30;;;0.10;99.90;;;;;;5052286;28;20050;-72
2022/12/04 06:37:40;;;;;;;84.10;43.17;;;0.00;99.90;;;;;;5044110;28;20076;-72
2022/12/04 06:40:06;;;;;;;71.75;38.28;;;0.00;99.90;;;;;;5049891;28;20047;-73
2022/12/04 06:42:32;;;;;;;81.75;41.45;;;0.00;99.90;;;;;;5040253;28;20049;-72
2022/12/04 06:44:58;;;;;;;83.80;41.50;;;0.00;99.90;;;;;;5055461;28;20051;-72
2022/12/04 06:47:24;;;;;;;79.80;40.50;;;0.00;99.90;;;;;;5062445;28;20055;-72
2022/12/04 06:49:50;;;;;;;81.45;42.60;;;0.00;99.90;;;;;;5015082;28;20394;-73
2022/12/04 06:52:16;;;;;;;78.88;39.63;;;0.00;99.90;;;;;;5036193;28;20044;-72
2022/12/04 06:54:42;;;;;;;79.22;40.28;;;0.00;99.90;;;;;;5023901;28;20045;-72
2022/12/04 06:57:08;;;;;;;74.80;40.03;;;0.00;99.90;;;;;;5046315;28;20052;-73
2022/12/04 06:59:34;;;;;;;77.40;38.95;;;0.00;99.90;;;;;;5060185;28;20490;-72
2022/12/04 07:02:00;;;;;;;81.30;40.65;;;0.00;99.90;;;;;;5075834;28;20063;-72
2022/12/04 07:04:26;;;;;;;79.07;40.33;;;0.00;99.90;;;;;;5059852;28;20051;-72
2022/12/04 07:06:52;;;;;;;81.45;40.10;;;0.00;99.90;;;;;;5059166;28;20130;-72
2022/12/04 07:09:17;;;;;;;81.38;40.03;;;0.00;99.90;;;;;;5047667;28;20468;-72
2022/12/04 07:11:44;;;;;;;78.47;40.25;;;0.00;99.90;;;;;;5041505;28;20036;-72
2022/12/04 07:14:11;;;;;;;83.70;41.10;;;0.10;99.90;;;;;;5076380;28;20123;-72
2022/12/04 07:16:38;;;;;;;86.32;43.28;;;0.10;99.90;;;;;;5059844;28;20036;-73
2022/12/04 07:19:04;;;;;;;86.70;42.72;;;0.10;99.90;;;;;;5086903;28;20046;-72
2022/12/04 07:21:30;;;;;;;83.75;41.60;;;0.10;99.90;;;;;;5091891;28;20052;-74
2022/12/04 07:23:58;;;;;;;78.22;36.28;;;0.10;99.90;;;;;;5063854;28;20044;-73
2022/12/04 07:26:26;;;;;;;91.07;43.75;;;0.10;99.90;;;;;;5076369;28;20059;-72
2022/12/04 07:28:54;;;;;;;83.57;39.50;;;0.10;99.90;;;;;;5075927;28;20055;-72
2022/12/04 07:31:22;;;;;;;81.15;40.72;;;0.10;99.90;;;;;;5063874;28;20091;-72
2022/12/04 07:33:48;;;;;;;68.30;30.55;;;0.20;99.90;;;;;;5056136;28;20041;-73
2022/12/04 07:36:18;;;;;;;90.03;43.63;;;0.10;99.90;;;;;;5065514;28;20077;-72
2022/12/04 07:38:44;;;;;;;84.95;42.67;;;0.20;99.90;;;;;;5075446;28;20122;-73
2022/12/04 07:41:12;;;;;;;80.80;37.03;;;0.80;99.90;;;;;;5059260;28;20040;-73
2022/12/04 07:43:38;;;;;;;90.32;45.15;;;0.20;99.90;;;;;;5073788;28;20059;-71
2022/12/04 07:46:14;;;;;;;89.32;43.00;;;0.20;99.90;;;;;;5063182;28;20083;-73
2022/12/04 07:48:41;;;;;;;86.93;42.75;;;0.10;99.90;;;;;;5075101;28;20138;-72
2022/12/04 07:51:08;;;;;;;84.38;39.22;;;0.20;99.90;;;;;;5052223;28;20071;-73
2022/12/04 07:53:34;;;;;;;86.07;42.05;;;0.20;99.90;;;;;;5065854;28;20139;-72
2022/12/04 07:56:00;;;;;;;91.38;43.42;;;0.20;99.90;;;;;;5055600;28;20044;-72
2022/12/04 07:58:26;;;;;;;68.53;32.35;;;0.80;99.90;;;;;;5059887;28;20048;-73
2022/12/04 08:00:52;;;;;;;92.22;43.92;;;0.20;99.90;;;;;;5068865;28;20503;-73
2022/12/04 08:03:17;;;;;;;89.10;43.60;;;0.20;99.90;;;;;;5079054;28;20043;-73
2022/12/04 08:05:43;;;;;;;81.55;40.35;;;0.20;99.90;;;;;;5057508;28;20098;-72
2022/12/04 08:08:09;;;;;;;93.88;45.08;;;0.20;99.90;;;;;;5044722;28;20126;-73
2022/12/04 08:10:34;;;;;;;84.57;41.38;;;0.30;99.90;;;;;;5055264;28;20048;-72
2022/12/04 08:13:00;;;;;;;81.03;39.90;;;0.30;99.90;;;;;;5039481;28;20044;-73
2022/12/04 08:15:26;;;;;;;82.07;40.92;;;0.30;99.90;;;;;;5075068;28;20036;-72
2022/12/04 08:17:51;;;;;;;76.07;38.67;;;0.70;99.90;;;;;;5062443;28;20063;-72
2022/12/04 08:20:17;;;;;;;81.65;39.97;;;0.40;99.90;;;;;;5041792;28;20537;-72
2022/12/04 08:22:43;;;;;;;86.95;41.38;;;0.40;99.90;;;;;;5052591;28;20046;-72
2022/12/04 08:25:09;;;;;;;85.60;41.50;;;0.30;99.90;;;;;;5058006;28;20051;-73
2022/12/04 08:27:35;;;;;;;89.18;44.97;;;0.40;99.90;;;;;;5062180;28;20044;-75
2022/12/04 08:30:00;;;;;;;90.25;45.67;;;0.40;99.90;;;;;;5062678;28;20051;-73
2022/12/04 08:32:26;;;;;;;92.90;44.05;;;0.50;99.90;;;;;;5076836;28;20046;-73
2022/12/04 08:34:52;;;;;;;90.13;45.08;;;0.40;99.90;;;;;;5053227;28;20040;-74
2022/12/04 08:37:17;;;;;;;93.80;46.25;;;1.10;99.90;;;;;;5060209;28;20044;-73
2022/12/04 08:39:43;;;;;;;82.00;41.00;;;0.40;99.90;;;;;;5058508;28;20697;-74
2022/12/04 08:42:09;;;;;;;84.38;42.22;;;0.40;99.90;;;;;;5070597;28;20101;-73
2022/12/04 08:44:34;;;;;;;85.47;42.53;;;0.40;99.90;;;;;;5065788;28;20150;-73
2022/12/04 08:47:00;;;;;;;87.20;42.30;;;1.40;99.90;;;;;;5085245;28;20055;-72
2022/12/04 08:49:26;;;;;;;83.00;44.75;;;0.70;99.90;;;;;;5084214;28;20046;-73
2022/12/04 08:51:51;;;;;;;81.55;39.65;;;0.50;99.90;;;;;;5067421;28;20043;-73
2022/12/04 08:54:17;;;;;;;81.82;41.92;;;0.50;99.90;;;;;;5083569;28;20048;-75
2022/12/04 08:56:43;;;;;;;83.18;43.42;;;0.60;99.90;;;;;;5061077;28;20044;-73
2022/12/04 08:59:12;;;;;;;81.55;41.97;;;0.60;99.90;;;;;;5061451;28;20076;-73
2022/12/04 09:01:37;;;;;;;79.95;40.65;;;0.60;99.90;;;;;;5085662;27;20047;-73
2022/12/04 09:04:03;;;;;;;72.38;34.38;;;0.60;99.90;;;;;;5086283;28;20111;-75
2022/12/04 09:06:29;;;;;;;83.95;41.40;;;0.70;99.90;;;;;;5085181;28;20588;-74
2022/12/04 09:08:56;;;;;;;85.40;43.17;;;0.60;99.90;;;;;;5090267;28;20036;-73
2022/12/04 09:11:24;;;;;;;90.28;45.28;;;1.70;99.90;;;;;;5085750;28;20154;-73
2022/12/04 09:13:50;;;;;;;84.47;44.00;;;0.70;99.90;;;;;;5092886;28;20066;-73
2022/12/04 09:16:21;;;;;;;73.20;38.78;;;0.70;99.90;;;;;;5078023;28;20055;-72
2022/12/04 09:18:48;;;;;;;108.68;50.45;;;0.70;99.90;;;;;;5089552;28;20052;-73
2022/12/04 09:21:16;;;;;;;135.63;65.43;;;0.70;99.90;;;;;;5068253;28;20036;-73
2022/12/04 09:23:42;;;;;;;87.75;42.60;;;0.70;99.90;;;;;;5084802;28;20122;-72
2022/12/04 09:26:24;;;;;;;84.72;43.30;;;0.70;99.90;;;;;;5091285;28;20120;-73
2022/12/04 09:28:51;;;;;;;72.93;35.08;;;0.70;99.90;;;;;;5081924;28;20052;-72
2022/12/04 09:31:18;;;;;;;82.40;43.17;;;0.70;99.90;;;;;;5080429;28;20494;-72
2022/12/04 09:33:44;;;;;;;89.18;45.90;;;0.80;99.90;;;;;;5055880;28;20050;-73
2022/12/04 09:36:16;;;;;;;82.10;44.67;;;0.80;99.90;;;;;;5082157;28;20062;-73
2022/12/04 09:38:44;;;;;;;77.13;40.70;;;0.80;99.90;;;;;;5083689;28;20058;-73
2022/12/04 09:41:20;;;;;;;81.53;41.20;;;0.80;99.90;;;;;;5086494;28;20666;-74
2022/12/04 09:43:56;;;;;;;65.35;32.88;;;0.80;99.90;;;;;;5086696;28;20058;-73
2022/12/04 09:46:50;;;;;;;77.68;41.83;;;0.90;99.90;;;;;;5081153;28;20068;-72
2022/12/04 09:49:24;;;;;;;75.47;40.35;;;0.90;99.90;;;;;;5083221;27;20052;-72
2022/12/04 09:51:53;;;;;;;70.75;39.80;;;0.90;99.90;;;;;;5080997;28;20502;-73
2022/12/04 09:54:25;;;;;;;73.18;39.03;;;0.90;99.90;;;;;;5007964;28;20112;-72
2022/12/04 09:56:57;;;;;;;;;;;1.00;99.90;;;;;;5070009;28;20051;-72
2022/12/04 09:59:29;;;;;;;67.45;37.30;;;1.00;99.90;;;;;;5088342;28;19928;-74
2022/12/04 10:02:14;;;;;;;61.15;32.42;;;1.00;99.90;;;;;;5098157;28;20035;-73
2022/12/04 10:04:39;;;;;;;64.35;35.13;;;1.30;99.90;;;;;;5066599;28;20144;-74
2022/12/04 10:07:25;;;;;;;63.60;34.78;;;1.10;99.90;;;;;;5082038;28;20185;-73
2022/12/04 10:09:53;;;;;;;64.25;35.33;;;1.40;99.90;;;;;;5090511;28;20102;-72
2022/12/04 10:12:46;;;;;;;62.40;35.33;;;1.10;99.90;;;;;;5071226;27;20043;-71
2022/12/04 10:15:24;;;;;;;61.30;35.08;;;1.10;99.90;;;;;;5088449;28;20113;-72
2022/12/04 10:18:05;;;;;;;53.70;30.23;;;1.20;99.90;;;;;;5102411;28;20052;-73
2022/12/04 10:20:49;;;;;;;59.95;33.70;;;1.20;99.90;;;;;;5115107;27;20477;-73
2022/12/04 10:23:18;;;;;;;57.00;32.28;;;1.30;99.90;;;;;;5095122;27;20047;-72
2022/12/04 10:25:43;;;;;;;55.83;32.65;;;1.30;99.90;;;;;;5092457;28;20047;-73
2022/12/04 10:28:32;;;;;;;52.67;28.92;;;1.40;99.90;;;;;;5089691;28;20131;-75
2022/12/04 10:31:03;;;;;;;54.20;31.52;;;1.40;99.90;;;;;;5087472;28;20101;-71
2022/12/04 10:33:35;;;;;;;46.35;24.63;;;1.40;99.90;;;;;;5084756;28;20442;-72
2022/12/04 10:36:01;;;;;;;;;;;1.40;99.90;;;;;;5085048;28;20043;-71
2022/12/04 10:38:44;;;;;;;50.80;29.85;;;1.50;99.90;;;;;;5084673;28;20252;-72
2022/12/04 10:41:16;;;;;;;;;;;1.50;99.90;;;;;;5109757;27;20085;-72
2022/12/04 10:43:47;;;;;;;41.17;22.42;;;1.60;99.90;;;;;;5101430;27;20456;-71
2022/12/04 10:46:20;;;;;;;40.93;20.60;;;1.70;99.90;;;;;;5069529;28;20131;-74
2022/12/04 10:48:47;;;;;;;;;;;1.60;99.90;;;;;;5087554;28;20286;-73
2022/12/04 10:51:18;;;;;;;47.17;28.35;;;2.00;99.90;;;;;;5084302;28;19920;-72
2022/12/04 10:53:48;;;;;;;47.33;28.17;;;2.10;99.90;;;;;;5089904;28;20055;-72
2022/12/04 10:56:25;;;;;;;45.53;26.70;;;1.80;99.90;;;;;;5082754;27;20495;-72
2022/12/04 10:58:55;;;;;;;41.17;24.73;;;1.70;99.90;;;;;;5088697;28;20047;-72
2022/12/04 11:01:21;;;;;;;48.25;30.95;;;1.80;99.90;;;;;;5087169;28;20066;-72
2022/12/04 11:03:55;;;;;;;47.30;27.98;;;1.80;99.90;;;;;;5085046;28;20127;-72
2022/12/04 11:06:25;;;;;;;46.92;27.83;;;1.80;99.90;;;;;;5086029;28;20056;-71
2022/12/04 11:08:52;;;;;;;43.45;27.55;;;1.90;99.90;;;;;;5084890;28;20503;-72
2022/12/04 11:11:38;;;;;;;41.20;24.63;;;1.90;99.90;;;;;;5063848;28;20050;-71
2022/12/04 11:14:16;;;;;;;42.10;24.52;;;2.00;99.90;;;;;;5058160;28;20051;-72
2022/12/04 11:16:45;;;;;;;38.10;24.13;;;2.20;99.90;;;;;;5080742;28;20051;-72
2022/12/04 11:19:28;;;;;;;40.58;25.13;;;2.00;99.90;;;;;;5068442;28;20099;-72
2022/12/04 11:21:57;;;;;;;40.42;24.60;;;2.00;99.90;;;;;;5082482;28;20078;-73
2022/12/04 11:24:30;;;;;;;41.70;24.95;;;2.00;99.90;;;;;;5085036;28;20051;-71
2022/12/04 11:26:57;;;;;;;40.95;24.50;;;2.40;99.90;;;;;;5089616;28;20040;-73
2022/12/04 11:29:34;;;;;;;43.63;25.88;;;2.10;99.90;;;;;;5068066;28;20048;-72
2022/12/04 11:32:00;;;;;;;41.83;25.35;;;1.90;99.90;;;;;;5065206;28;20123;-73
2022/12/04 11:34:34;;;;;;;44.55;27.58;;;2.80;99.90;;;;;;5086668;28;20399;-73
2022/12/04 11:37:00;;;;;;;44.53;28.48;;;2.10;99.90;;;;;;5079515;28;20043;-72
2022/12/04 11:39:25;;;;;;;47.50;29.10;;;1.90;99.90;;;;;;5089107;28;20396;-71
2022/12/04 11:42:19;;;;;;;43.28;27.00;;;1.90;99.90;;;;;;5105886;28;20164;-71
2022/12/04 11:44:55;;;;;;;43.00;25.88;;;1.90;99.90;;;;;;5069727;28;20261;-73
2022/12/04 11:47:24;;;;;;;41.20;26.17;;;1.90;99.90;;;;;;5071632;28;20551;-72
2022/12/04 11:50:20;;;;;;;42.58;26.48;;;1.90;99.90;;;;;;5087626;28;20036;-73
2022/12/04 11:53:16;;;;;;;40.45;23.95;;;1.90;99.90;;;;;;5035355;27;20048;-73
2022/12/04 11:55:59;;;;;;;39.65;22.95;;;1.90;99.90;;;;;;5080001;28;20321;-73
2022/12/04 11:58:43;;;;;;;39.15;24.63;;;1.90;99.90;;;;;;5095478;28;20036;-72
2022/12/04 12:01:24;;;;;;;42.97;27.50;;;2.00;99.90;;;;;;5081200;28;20080;-70
2022/12/04 12:03:59;;;;;;;40.80;24.50;;;2.00;99.90;;;;;;5072287;28;20055;-71
2022/12/04 12:07:03;;;;;;;54.10;35.67;;;2.00;99.90;;;;;;5080167;28;20334;-71
2022/12/04 12:09:56;;;;;;;46.90;27.15;;;2.00;99.90;;;;;;5086906;28;20130;-70
2022/12/04 12:12:28;;;;;;;56.58;34.30;;;2.00;99.90;;;;;;5073050;27;20118;-70
2022/12/04 12:15:18;;;;;;;50.15;30.27;;;2.00;99.90;;;;;;5069565;28;20126;-71
2022/12/04 12:17:50;;;;;;;55.17;32.10;;;2.00;99.90;;;;;;5079118;28;20044;-71
2022/12/04 12:20:28;;;;;;;40.25;25.55;;;2.10;99.90;;;;;;5101821;28;20427;-71
2022/12/04 12:23:21;;;;;;;42.75;26.08;;;2.00;99.90;;;;;;5066400;28;20505;-71
2022/12/04 12:26:02;;;;;;;42.47;26.38;;;2.10;99.90;;;;;;5082617;28;20564;-72
2022/12/04 12:28:46;;;;;;;40.28;24.10;;;2.00;99.90;;;;;;5085057;28;20122;-71
2022/12/04 12:31:34;;;;;;;39.80;23.60;;;2.20;99.90;;;;;;5065750;28;20047;-71
2022/12/04 12:34:08;;;;;;;37.60;22.92;;;2.10;99.90;;;;;;5084769;28;20040;-71
2022/12/04 12:36:42;;;;;;;37.97;23.50;;;2.10;99.90;;;;;;5070100;28;20080;-71
2022/12/04 12:39:14;;;;;;;41.28;24.92;;;2.10;99.90;;;;;;5068882;28;20536;-72
2022/12/04 12:41:53;;;;;;;38.75;24.02;;;2.20;99.90;;;;;;5108514;28;20051;-71
2022/12/04 12:44:39;;;;;;;40.88;23.75;;;2.20;99.90;;;;;;5087361;28;20047;-74
2022/12/04 12:47:11;;;;;;;38.25;22.35;;;2.10;99.90;;;;;;5067578;28;20156;-71
2022/12/04 12:49:45;;;;;;;;;;;2.10;99.90;;;;;;5084351;28;20066;-72
2022/12/04 12:52:19;;;;;;;35.28;20.65;;;2.10;99.90;;;;;;5081580;28;20070;-71
2022/12/04 12:54:54;;;;;;;36.90;21.90;;;2.10;99.90;;;;;;5080191;28;20050;-71
2022/12/04 12:57:37;;;;;;;37.13;22.60;;;2.80;99.90;;;;;;5088731;28;20047;-72
2022/12/04 13:00:11;;;;;;;;;;;2.20;99.90;;;;;;5106844;28;20479;-71
2022/12/04 13:02:45;;;;;;;37.33;22.10;;;2.10;99.90;;;;;;5088271;28;19942;-71
2022/12/04 13:05:16;;;;;;;39.38;24.33;;;2.20;99.90;;;;;;5086670;28;20052;-71
2022/12/04 13:07:53;;;;;;;38.17;22.42;;;2.10;99.90;;;;;;5105313;28;20040;-71
2022/12/04 13:10:28;;;;;;;35.83;21.30;;;2.10;99.90;;;;;;5067682;28;20495;-74
2022/12/04 13:13:04;;;;;;;39.35;23.67;;;2.10;99.90;;;;;;5084983;28;20048;-71
2022/12/04 13:15:43;;;;;;;39.40;23.70;;;2.10;99.90;;;;;;5085663;28;20507;-72